createdAt,value
2019-05-20T00:00:58.691Z,12.8
2019-05-20T00:01:58.756Z,12.8
2019-05-20T00:02:58.816Z,12.6
2019-05-20T00:03:58.824Z,12.6
2019-05-20T00:04:58.885Z,12.6
2019-05-20T00:05:59.016Z,12.6
2019-05-20T00:06:59.274Z,12.7
2019-05-20T00:07:59.219Z,12.7
2019-05-20T00:08:59.771Z,12.6
2019-05-20T00:09:59.391Z,12.6
2019-05-20T00:10:59.278Z,12.6
2019-05-20T00:11:59.584Z,12.6
2019-05-20T00:12:59.343Z,12.9
2019-05-20T00:13:59.575Z,12.9
2019-05-20T00:14:59.461Z,12.7
2019-05-20T00:15:59.791Z,12.6
2019-05-20T00:16:59.564Z,12.8
2019-05-20T00:17:59.635Z,12.8
2019-05-20T00:19:00.681Z,12.9
2019-05-20T00:20:00.552Z,12.9
2019-05-20T00:21:00.793Z,12.9
2019-05-20T00:22:00.085Z,12.9
2019-05-20T00:23:00.111Z,12.8
2019-05-20T00:24:00.555Z,12.5
2019-05-20T00:25:01.456Z,12.5
2019-05-20T00:26:00.793Z,12.6
2019-05-20T00:27:00.794Z,12.7
2019-05-20T00:28:01.254Z,12.8
2019-05-20T00:29:01.219Z,13
2019-05-20T00:30:01.583Z,13
2019-05-20T00:31:01.607Z,13
2019-05-20T00:32:00.830Z,12.9
2019-05-20T00:33:00.977Z,12.8
2019-05-20T00:34:00.812Z,12.7
2019-05-20T00:35:01.181Z,12.8
2019-05-20T00:36:00.702Z,12.8
2019-05-20T00:37:01.238Z,13
2019-05-20T00:38:00.944Z,12.9
2019-05-20T00:39:00.845Z,12.9
2019-05-20T00:40:01.023Z,12.9
2019-05-20T00:41:00.992Z,12.9
2019-05-20T00:42:01.147Z,12.9
2019-05-20T00:43:01.447Z,13.1
2019-05-20T00:44:01.197Z,13.1
2019-05-20T00:45:01.258Z,13.1
2019-05-20T00:46:01.567Z,13.1
2019-05-20T00:47:01.247Z,13.1
2019-05-20T00:48:01.344Z,13
2019-05-20T00:49:01.389Z,13
2019-05-20T00:50:01.445Z,13
2019-05-20T00:51:01.464Z,13
2019-05-20T00:52:01.557Z,13.1
2019-05-20T00:53:01.604Z,13.2
2019-05-20T00:54:01.686Z,13.3
2019-05-20T00:55:01.719Z,13.4
2019-05-20T00:56:01.818Z,13.2
2019-05-20T00:57:01.835Z,13.1
2019-05-20T00:58:01.921Z,13.2
2019-05-20T00:59:01.939Z,13.1
2019-05-20T01:00:02.583Z,13
2019-05-20T01:01:02.055Z,13
2019-05-20T01:02:02.087Z,13.1
2019-05-20T01:03:02.131Z,13.1
2019-05-20T01:04:02.180Z,13
2019-05-20T01:05:02.245Z,13
2019-05-20T01:06:02.345Z,13
2019-05-20T01:07:02.363Z,12.9
2019-05-20T01:08:02.419Z,12.9
2019-05-20T01:09:02.429Z,12.8
2019-05-20T01:10:02.506Z,12.8
2019-05-20T01:11:02.591Z,12.8
2019-05-20T01:12:02.611Z,12.7
2019-05-20T01:13:02.671Z,12.7
2019-05-20T01:14:02.768Z,12.7
2019-05-20T01:15:02.802Z,12.8
2019-05-20T01:16:03.832Z,12.8
2019-05-20T01:17:02.881Z,12.8
2019-05-20T01:18:02.974Z,12.8
2019-05-20T01:19:03.034Z,12.9
2019-05-20T01:20:03.146Z,12.9
2019-05-20T01:21:03.170Z,12.9
2019-05-20T01:22:03.219Z,12.9
2019-05-20T01:23:03.290Z,12.9
2019-05-20T01:24:03.354Z,12.9
2019-05-20T01:25:03.400Z,12.9
2019-05-20T01:26:03.490Z,12.9
2019-05-20T01:27:03.502Z,12.8
2019-05-20T01:28:03.583Z,12.8
2019-05-20T01:29:03.682Z,12.8
2019-05-20T01:30:03.846Z,12.8
2019-05-20T01:31:03.797Z,12.8
2019-05-20T01:32:04.089Z,12.8
2019-05-20T01:33:13.103Z,12.8
2019-05-20T01:34:03.968Z,12.9
2019-05-20T01:35:04.009Z,12.8
2019-05-20T01:36:04.019Z,13
2019-05-20T01:37:04.109Z,12.9
2019-05-20T01:38:04.158Z,12.9
2019-05-20T01:39:04.263Z,13
2019-05-20T01:40:04.299Z,12.9
2019-05-20T01:41:04.343Z,12.8
2019-05-20T01:42:04.405Z,12.8
2019-05-20T01:43:04.684Z,12.8
2019-05-20T01:44:04.760Z,12.8
2019-05-20T01:45:04.754Z,12.9
2019-05-20T01:46:04.722Z,12.8
2019-05-20T01:47:04.715Z,12.9
2019-05-20T01:48:04.825Z,12.9
2019-05-20T01:49:04.903Z,12.9
2019-05-20T01:50:04.938Z,12.8
2019-05-20T01:51:04.991Z,12.8
2019-05-20T01:52:05.065Z,12.8
2019-05-20T01:53:05.103Z,12.8
2019-05-20T01:54:05.183Z,12.9
2019-05-20T01:55:05.241Z,12.9
2019-05-20T01:56:05.280Z,13
2019-05-20T01:57:05.323Z,12.9
2019-05-20T01:58:05.484Z,13
2019-05-20T01:59:05.449Z,12.9
2019-05-20T02:00:05.457Z,13.1
2019-05-20T02:01:05.508Z,13.1
2019-05-20T02:02:05.579Z,13.1
2019-05-20T02:03:05.652Z,13.2
2019-05-20T02:04:05.737Z,13.1
2019-05-20T02:05:05.743Z,13.1
2019-05-20T02:06:05.855Z,13
2019-05-20T02:07:05.923Z,12.9
2019-05-20T02:08:05.920Z,12.8
2019-05-20T02:09:05.961Z,12.8
2019-05-20T02:10:05.984Z,12.8
2019-05-20T02:11:06.066Z,12.7
2019-05-20T02:12:06.257Z,12.8
2019-05-20T02:13:06.225Z,12.8
2019-05-20T02:14:06.219Z,12.7
2019-05-20T02:15:06.269Z,12.8
2019-05-20T02:16:06.340Z,12.8
2019-05-20T02:17:06.399Z,12.8
2019-05-20T02:18:06.476Z,12.7
2019-05-20T02:19:06.534Z,12.5
2019-05-20T02:20:06.619Z,12.6
2019-05-20T02:21:06.633Z,12.7
2019-05-20T02:22:06.683Z,12.8
2019-05-20T02:23:06.754Z,12.7
2019-05-20T02:24:06.823Z,12.6
2019-05-20T02:25:06.844Z,12.6
2019-05-20T02:26:06.897Z,12.6
2019-05-20T02:27:06.919Z,12.6
2019-05-20T02:28:07.047Z,12.8
2019-05-20T02:29:07.060Z,12.7
2019-05-20T02:30:07.109Z,12.8
2019-05-20T02:31:07.154Z,12.8
2019-05-20T02:32:07.199Z,12.8
2019-05-20T02:33:07.340Z,12.8
2019-05-20T02:34:07.361Z,12.7
2019-05-20T02:35:07.376Z,12.7
2019-05-20T02:36:07.445Z,12.7
2019-05-20T02:37:07.494Z,12.7
2019-05-20T02:38:07.516Z,12.6
2019-05-20T02:39:07.585Z,12.5
2019-05-20T02:40:07.607Z,12.6
2019-05-20T02:41:07.697Z,12.6
2019-05-20T02:42:07.733Z,12.6
2019-05-20T02:43:07.797Z,12.7
2019-05-20T02:44:07.839Z,12.6
2019-05-20T02:45:07.896Z,12.5
2019-05-20T02:46:07.945Z,12.6
2019-05-20T02:47:08.029Z,12.6
2019-05-20T02:48:08.131Z,12.6
2019-05-20T02:49:08.181Z,12.7
2019-05-20T02:50:08.217Z,12.7
2019-05-20T02:51:08.243Z,12.7
2019-05-20T02:52:08.282Z,12.6
2019-05-20T02:53:08.375Z,12.6
2019-05-20T02:54:08.407Z,12.6
2019-05-20T02:55:08.467Z,12.6
2019-05-20T02:56:08.633Z,12.7
2019-05-20T02:57:08.579Z,12.8
2019-05-20T02:58:08.663Z,12.6
2019-05-20T02:59:08.734Z,12.6
2019-05-20T03:00:08.753Z,12.6
2019-05-20T03:01:08.810Z,12.7
2019-05-20T03:02:08.893Z,12.7
2019-05-20T03:03:09.080Z,12.8
2019-05-20T03:04:11.888Z,12.8
2019-05-20T03:05:09.203Z,12.7
2019-05-20T03:06:09.180Z,12.6
2019-05-20T03:07:09.195Z,12.7
2019-05-20T03:08:09.365Z,12.6
2019-05-20T03:09:12.045Z,12.5
2019-05-20T03:10:09.359Z,12.3
2019-05-20T03:11:09.420Z,12.4
2019-05-20T03:12:09.523Z,12.3
2019-05-20T03:13:09.609Z,12.3
2019-05-20T03:14:09.713Z,12.4
2019-05-20T03:15:09.604Z,12.4
2019-05-20T03:16:09.589Z,12.4
2019-05-20T03:17:09.685Z,12.4
2019-05-20T03:18:09.681Z,12.3
2019-05-20T03:19:09.749Z,12.3
2019-05-20T03:20:09.996Z,12.3
2019-05-20T03:21:09.904Z,12.4
2019-05-20T03:22:10.048Z,12.3
2019-05-20T03:23:10.407Z,12.3
2019-05-20T03:24:10.024Z,12.3
2019-05-20T03:25:10.078Z,12.3
2019-05-20T03:26:10.163Z,12.2
2019-05-20T03:27:10.199Z,12.3
2019-05-20T03:28:10.278Z,12.3
2019-05-20T03:29:10.315Z,12.2
2019-05-20T03:30:10.376Z,12.2
2019-05-20T03:31:10.420Z,12.2
2019-05-20T03:32:10.476Z,12.2
2019-05-20T03:33:10.521Z,12.3
2019-05-20T03:34:38.614Z,12.3
2019-05-20T03:35:10.597Z,12.3
2019-05-20T03:36:10.712Z,12.2
2019-05-20T03:37:11.199Z,12.3
2019-05-20T03:38:11.299Z,12.2
2019-05-20T03:39:10.890Z,12.1
2019-05-20T03:40:10.932Z,12.1
2019-05-20T03:41:10.990Z,12.2
2019-05-20T03:42:11.041Z,12.3
2019-05-20T03:43:11.169Z,12.3
2019-05-20T03:44:11.233Z,12.3
2019-05-20T03:45:11.182Z,12.2
2019-05-20T03:46:11.339Z,12.1
2019-05-20T03:47:11.341Z,12.2
2019-05-20T03:48:11.412Z,12.1
2019-05-20T03:49:11.451Z,12.1
2019-05-20T03:50:11.572Z,12.2
2019-05-20T03:51:11.540Z,12.3
2019-05-20T03:52:11.579Z,12.3
2019-05-20T03:53:11.682Z,12.3
2019-05-20T03:54:11.688Z,12.2
2019-05-20T03:55:11.851Z,12.3
2019-05-20T03:56:12.347Z,12.3
2019-05-20T03:57:11.836Z,12.2
2019-05-20T03:58:13.458Z,12.3
2019-05-20T03:59:12.009Z,12.2
2019-05-20T04:00:12.037Z,12.2
2019-05-20T04:01:12.099Z,12.3
2019-05-20T04:02:12.150Z,12.4
2019-05-20T04:03:12.207Z,12.4
2019-05-20T04:04:12.236Z,12.4
2019-05-20T04:05:12.301Z,12.4
2019-05-20T04:06:12.376Z,12.3
2019-05-20T04:07:12.417Z,12.3
2019-05-20T04:08:12.457Z,12.3
2019-05-20T04:09:12.505Z,12.2
2019-05-20T04:10:12.586Z,12.3
2019-05-20T04:11:12.644Z,12.3
2019-05-20T04:12:12.675Z,12.3
2019-05-20T04:13:12.719Z,12.4
2019-05-20T04:14:12.794Z,12.5
2019-05-20T04:15:12.907Z,12.5
2019-05-20T04:16:12.954Z,12.4
2019-05-20T04:17:12.938Z,12.4
2019-05-20T04:18:13.024Z,12.4
2019-05-20T04:19:13.049Z,12.3
2019-05-20T04:20:13.131Z,12.4
2019-05-20T04:21:13.198Z,12.4
2019-05-20T04:22:13.229Z,12.6
2019-05-20T04:23:13.349Z,12.7
2019-05-20T04:24:13.398Z,12.7
2019-05-20T04:25:13.468Z,12.6
2019-05-20T04:26:13.486Z,12.5
2019-05-20T04:27:13.542Z,12.6
2019-05-20T04:28:13.640Z,12.6
2019-05-20T04:29:13.668Z,12.5
2019-05-20T04:30:13.755Z,12.6
2019-05-20T04:31:13.803Z,12.6
2019-05-20T04:32:13.836Z,12.6
2019-05-20T04:33:13.876Z,12.6
2019-05-20T04:34:13.942Z,12.6
2019-05-20T04:35:21.849Z,12.5
2019-05-20T04:36:14.026Z,12.5
2019-05-20T04:37:14.057Z,12.4
2019-05-20T04:38:14.135Z,12.4
2019-05-20T04:39:14.220Z,12.4
2019-05-20T04:40:14.248Z,12.4
2019-05-20T04:41:14.337Z,12.5
2019-05-20T04:42:14.379Z,12.6
2019-05-20T04:43:14.436Z,12.6
2019-05-20T04:44:14.524Z,12.6
2019-05-20T04:45:14.531Z,12.7
2019-05-20T04:46:14.761Z,12.7
2019-05-20T04:47:14.622Z,12.8
2019-05-20T04:48:14.695Z,12.7
2019-05-20T04:49:14.760Z,12.7
2019-05-20T04:50:14.821Z,12.8
2019-05-20T04:51:14.897Z,12.7
2019-05-20T04:52:14.973Z,12.7
2019-05-20T04:53:15.267Z,12.8
2019-05-20T04:54:15.058Z,12.8
2019-05-20T04:55:15.735Z,12.8
2019-05-20T04:56:15.619Z,12.8
2019-05-20T04:57:15.232Z,12.6
2019-05-20T04:58:15.311Z,12.6
2019-05-20T04:59:15.348Z,12.6
2019-05-20T05:00:15.400Z,12.7
2019-05-20T05:01:15.498Z,12.6
2019-05-20T05:02:15.799Z,12.6
2019-05-20T05:03:15.620Z,12.6
2019-05-20T05:04:15.685Z,12.6
2019-05-20T05:05:15.748Z,12.7
2019-05-20T05:06:15.785Z,12.7
2019-05-20T05:07:15.826Z,12.7
2019-05-20T05:08:15.948Z,12.7
2019-05-20T05:09:15.977Z,12.6
2019-05-20T05:10:19.488Z,12.6
2019-05-20T05:11:21.119Z,12.6
2019-05-20T05:12:16.133Z,12.7
2019-05-20T05:13:16.220Z,12.7
2019-05-20T05:14:16.232Z,12.7
2019-05-20T05:15:16.285Z,12.7
2019-05-20T05:16:16.321Z,12.6
2019-05-20T05:17:16.386Z,12.6
2019-05-20T05:18:16.505Z,12.8
2019-05-20T05:19:16.570Z,12.8
2019-05-20T05:20:18.304Z,12.9
2019-05-20T05:21:16.599Z,12.9
2019-05-20T05:22:16.633Z,12.8
2019-05-20T05:23:16.701Z,12.8
2019-05-20T05:24:16.768Z,12.8
2019-05-20T05:25:16.792Z,12.8
2019-05-20T05:26:16.901Z,12.6
2019-05-20T05:27:16.889Z,12.6
2019-05-20T05:28:16.925Z,12.7
2019-05-20T05:29:16.961Z,12.8
2019-05-20T05:30:17.094Z,12.8
2019-05-20T05:31:17.163Z,12.8
2019-05-20T05:32:17.183Z,12.9
2019-05-20T05:33:17.221Z,12.8
2019-05-20T05:34:17.342Z,12.8
2019-05-20T05:35:17.352Z,12.8
2019-05-20T05:36:21.392Z,12.7
2019-05-20T05:37:17.470Z,12.8
2019-05-20T05:38:17.534Z,12.9
2019-05-20T05:39:17.567Z,12.8
2019-05-20T05:40:17.650Z,12.8
2019-05-20T05:41:17.683Z,12.9
2019-05-20T05:42:17.721Z,12.8
2019-05-20T05:43:17.771Z,12.8
2019-05-20T05:44:17.853Z,12.7
2019-05-20T05:45:17.901Z,12.7
2019-05-20T05:46:17.948Z,12.6
2019-05-20T05:47:18.001Z,12.7
2019-05-20T05:48:18.074Z,12.8
2019-05-20T05:49:18.165Z,12.9
2019-05-20T05:50:18.184Z,12.8
2019-05-20T05:51:18.228Z,12.9
2019-05-20T05:52:18.304Z,12.9
2019-05-20T05:53:18.354Z,13
2019-05-20T05:54:18.397Z,13
2019-05-20T05:55:18.508Z,13.1
2019-05-20T05:56:18.520Z,13.1
2019-05-20T05:57:18.559Z,13.1
2019-05-20T05:58:18.692Z,13
2019-05-20T05:59:18.754Z,13
2019-05-20T06:00:18.866Z,13
2019-05-20T06:01:18.919Z,13
2019-05-20T06:02:18.893Z,12.9
2019-05-20T06:03:19.013Z,12.8
2019-05-20T06:04:19.052Z,12.9
2019-05-20T06:05:19.100Z,12.9
2019-05-20T06:06:27.023Z,12.9
2019-05-20T06:07:19.238Z,12.8
2019-05-20T06:08:19.276Z,12.8
2019-05-20T06:09:19.326Z,12.8
2019-05-20T06:10:19.363Z,12.8
2019-05-20T06:11:19.464Z,12.8
2019-05-20T06:12:19.518Z,12.8
2019-05-20T06:13:19.619Z,12.8
2019-05-20T06:14:19.679Z,12.9
2019-05-20T06:15:19.688Z,12.8
2019-05-20T06:16:35.207Z,12.9
2019-05-20T06:17:19.925Z,13
2019-05-20T06:18:20.115Z,12.9
2019-05-20T06:19:19.895Z,12.9
2019-05-20T06:20:20.138Z,12.9
2019-05-20T06:21:20.106Z,12.9
2019-05-20T06:22:20.273Z,12.9
2019-05-20T06:23:20.481Z,12.9
2019-05-20T06:24:20.165Z,13
2019-05-20T06:25:20.268Z,13
2019-05-20T06:26:20.355Z,12.9
2019-05-20T06:27:20.354Z,13
2019-05-20T06:28:20.386Z,13.1
2019-05-20T06:29:20.471Z,13.1
2019-05-20T06:30:20.516Z,13.1
2019-05-20T06:31:20.591Z,13
2019-05-20T06:32:20.618Z,13.1
2019-05-20T06:33:20.686Z,13
2019-05-20T06:34:20.773Z,13.1
2019-05-20T06:35:20.846Z,13.1
2019-05-20T06:36:37.943Z,13.1
2019-05-20T06:37:20.932Z,13.2
2019-05-20T06:38:20.995Z,13.1
2019-05-20T06:39:21.053Z,12.9
2019-05-20T06:40:21.155Z,13
2019-05-20T06:41:21.173Z,13
2019-05-20T06:42:21.211Z,13
2019-05-20T06:43:21.263Z,12.9
2019-05-20T06:44:21.348Z,12.9
2019-05-20T06:45:21.456Z,12.9
2019-05-20T06:46:21.496Z,12.8
2019-05-20T06:47:21.536Z,12.8
2019-05-20T06:48:21.590Z,12.9
2019-05-20T06:49:21.700Z,12.9
2019-05-20T06:50:21.766Z,12.8
2019-05-20T06:51:21.821Z,12.8
2019-05-20T06:52:35.234Z,12.8
2019-05-20T06:53:21.938Z,12.8
2019-05-20T06:54:22.052Z,12.8
2019-05-20T06:55:22.019Z,12.8
2019-05-20T06:56:22.102Z,12.7
2019-05-20T06:57:23.899Z,12.7
2019-05-20T06:58:22.202Z,12.8
2019-05-20T06:59:22.259Z,12.8
2019-05-20T07:00:22.306Z,12.9
2019-05-20T07:01:22.352Z,12.9
2019-05-20T07:02:22.436Z,12.9
2019-05-20T07:03:22.425Z,12.9
2019-05-20T07:04:22.528Z,12.9
2019-05-20T07:05:22.537Z,12.8
2019-05-20T07:06:46.277Z,12.9
2019-05-20T07:07:22.673Z,13
2019-05-20T07:08:22.750Z,13
2019-05-20T07:09:22.823Z,13
2019-05-20T07:10:22.901Z,13
2019-05-20T07:11:22.924Z,13
2019-05-20T07:12:22.981Z,13.1
2019-05-20T07:13:23.044Z,13.1
2019-05-20T07:14:23.188Z,13.1
2019-05-20T07:15:23.149Z,13.1
2019-05-20T07:16:23.215Z,13
2019-05-20T07:17:23.238Z,13
2019-05-20T07:18:23.300Z,13
2019-05-20T07:19:23.427Z,13
2019-05-20T07:20:23.382Z,12.9
2019-05-20T07:21:23.475Z,13
2019-05-20T07:22:23.473Z,13.1
2019-05-20T07:23:23.546Z,13.1
2019-05-20T07:24:23.605Z,13.2
2019-05-20T07:25:23.759Z,13.2
2019-05-20T07:26:23.739Z,13.2
2019-05-20T07:27:23.785Z,13.2
2019-05-20T07:28:23.878Z,13.2
2019-05-20T07:29:23.875Z,13
2019-05-20T07:30:23.947Z,13.1
2019-05-20T07:31:24.058Z,13.2
2019-05-20T07:32:24.090Z,13.1
2019-05-20T07:33:24.146Z,13.1
2019-05-20T07:34:24.217Z,13.2
2019-05-20T07:35:30.002Z,13.2
2019-05-20T07:36:24.328Z,13.1
2019-05-20T07:37:24.454Z,13.1
2019-05-20T07:38:24.629Z,13.1
2019-05-20T07:39:24.479Z,13.2
2019-05-20T07:40:24.538Z,13.1
2019-05-20T07:41:25.033Z,13.1
2019-05-20T07:42:24.862Z,13.2
2019-05-20T07:43:24.704Z,13.1
2019-05-20T07:44:24.746Z,13.1
2019-05-20T07:45:24.890Z,13.1
2019-05-20T07:46:25.034Z,13.2
2019-05-20T07:47:25.355Z,13.3
2019-05-20T07:48:25.336Z,13.1
2019-05-20T07:49:25.202Z,13.1
2019-05-20T07:50:25.124Z,13
2019-05-20T07:51:25.190Z,13
2019-05-20T07:52:25.245Z,13.1
2019-05-20T07:53:25.313Z,13.2
2019-05-20T07:54:25.399Z,13.2
2019-05-20T07:55:25.413Z,13.1
2019-05-20T07:56:25.471Z,13.2
2019-05-20T07:57:25.540Z,13.3
2019-05-20T07:58:25.607Z,13.3
2019-05-20T07:59:25.714Z,13.2
2019-05-20T08:00:25.737Z,13.1
2019-05-20T08:01:25.761Z,13.1
2019-05-20T08:02:25.848Z,13.2
2019-05-20T08:03:25.879Z,13.1
2019-05-20T08:04:26.005Z,13.1
2019-05-20T08:05:25.980Z,13.1
2019-05-20T08:06:26.109Z,13.1
2019-05-20T08:07:30.102Z,13.1
2019-05-20T08:08:26.203Z,13.1
2019-05-20T08:09:26.210Z,13
2019-05-20T08:10:26.320Z,13
2019-05-20T08:11:26.318Z,13.1
2019-05-20T08:12:26.388Z,13.1
2019-05-20T08:13:26.415Z,12.9
2019-05-20T08:14:26.563Z,13
2019-05-20T08:15:26.513Z,12.9
2019-05-20T08:16:26.572Z,13
2019-05-20T08:17:26.656Z,13
2019-05-20T08:18:26.694Z,12.9
2019-05-20T08:19:26.745Z,12.9
2019-05-20T08:20:26.808Z,13
2019-05-20T08:21:26.840Z,12.9
2019-05-20T08:22:26.921Z,13
2019-05-20T08:23:26.997Z,13.1
2019-05-20T08:24:27.042Z,13.1
2019-05-20T08:25:27.080Z,13.2
2019-05-20T08:26:27.180Z,13.2
2019-05-20T08:27:27.239Z,13
2019-05-20T08:28:27.270Z,13
2019-05-20T08:29:27.370Z,13
2019-05-20T08:30:27.395Z,12.9
2019-05-20T08:31:27.450Z,13
2019-05-20T08:32:27.541Z,13
2019-05-20T08:33:27.642Z,13
2019-05-20T08:34:28.505Z,13.1
2019-05-20T08:35:27.730Z,13.3
2019-05-20T08:36:27.741Z,13.3
2019-05-20T08:37:44.232Z,13.4
2019-05-20T08:38:27.853Z,13.3
2019-05-20T08:39:27.884Z,13.2
2019-05-20T08:40:27.975Z,13.3
2019-05-20T08:41:28.006Z,13.2
2019-05-20T08:42:28.072Z,13.2
2019-05-20T08:43:28.116Z,13.3
2019-05-20T08:44:28.364Z,13.3
2019-05-20T08:45:28.239Z,13.3
2019-05-20T08:46:28.301Z,13.4
2019-05-20T08:47:28.336Z,13.4
2019-05-20T08:48:28.499Z,13.3
2019-05-20T08:49:28.513Z,13.3
2019-05-20T08:50:28.560Z,13.3
2019-05-20T08:51:28.595Z,13.4
2019-05-20T08:52:28.681Z,13.5
2019-05-20T08:53:28.719Z,13.6
2019-05-20T08:54:29.515Z,13.6
2019-05-20T08:55:28.814Z,13.6
2019-05-20T08:56:29.056Z,13.6
2019-05-20T08:57:29.005Z,13.4
2019-05-20T08:58:29.047Z,13.4
2019-05-20T08:59:29.554Z,13.5
2019-05-20T09:00:29.281Z,13.5
2019-05-20T09:01:29.185Z,13.4
2019-05-20T09:02:29.526Z,13.4
2019-05-20T09:03:30.400Z,13.4
2019-05-20T09:04:29.635Z,13.4
2019-05-20T09:05:29.414Z,13.5
2019-05-20T09:06:30.121Z,13.5
2019-05-20T09:07:29.544Z,13.5
2019-05-20T09:08:29.569Z,13.6
2019-05-20T09:09:29.691Z,13.6
2019-05-20T09:10:29.653Z,13.7
2019-05-20T09:11:29.729Z,14
2019-05-20T09:12:30.177Z,13.7
2019-05-20T09:13:30.064Z,13.6
2019-05-20T09:14:30.535Z,13.6
2019-05-20T09:15:35.284Z,13.6
2019-05-20T09:16:30.914Z,13.5
2019-05-20T09:17:30.082Z,13.5
2019-05-20T09:18:30.337Z,13.4
2019-05-20T09:19:30.326Z,13.5
2019-05-20T09:20:30.617Z,13.4
2019-05-20T09:21:30.300Z,13.4
2019-05-20T09:22:30.635Z,13.4
2019-05-20T09:23:30.391Z,13.3
2019-05-20T09:24:31.878Z,13.4
2019-05-20T09:25:30.479Z,13.5
2019-05-20T09:26:30.571Z,13.5
2019-05-20T09:27:30.662Z,13.4
2019-05-20T09:28:31.831Z,13.3
2019-05-20T09:29:30.731Z,13.4
2019-05-20T09:30:31.146Z,13.4
2019-05-20T09:31:30.969Z,13.5
2019-05-20T09:32:31.729Z,13.5
2019-05-20T09:33:31.303Z,13.4
2019-05-20T09:34:32.056Z,13.4
2019-05-20T09:35:31.111Z,13.3
2019-05-20T09:36:31.221Z,13.4
2019-05-20T09:37:32.008Z,13.4
2019-05-20T09:38:32.606Z,13.3
2019-05-20T09:39:32.440Z,13.3
2019-05-20T09:40:32.281Z,13.4
2019-05-20T09:41:32.026Z,13.4
2019-05-20T09:42:32.265Z,13.2
2019-05-20T09:43:32.421Z,13.2
2019-05-20T09:44:32.897Z,13.2
2019-05-20T09:45:31.993Z,13.2
2019-05-20T09:46:33.243Z,13.3
2019-05-20T09:47:33.445Z,13.3
2019-05-20T09:48:32.186Z,13.3
2019-05-20T09:49:32.020Z,13.3
2019-05-20T09:50:32.037Z,13.3
2019-05-20T09:51:36.184Z,13.3
2019-05-20T09:52:32.115Z,13.3
2019-05-20T09:53:32.115Z,13.4
2019-05-20T09:54:32.331Z,13.3
2019-05-20T09:55:32.293Z,13.4
2019-05-20T09:56:32.304Z,13.5
2019-05-20T09:57:32.405Z,13.6
2019-05-20T09:58:32.548Z,13.6
2019-05-20T09:59:42.410Z,13.6
2019-05-20T10:00:32.472Z,13.6
2019-05-20T10:01:32.575Z,13.5
2019-05-20T10:02:37.728Z,13.4
2019-05-20T10:03:32.692Z,13.4
2019-05-20T10:04:32.835Z,13.5
2019-05-20T10:05:32.814Z,13.4
2019-05-20T10:06:32.832Z,13.3
2019-05-20T10:07:32.916Z,13.3
2019-05-20T10:08:37.867Z,13.2
2019-05-20T10:09:32.995Z,13.2
2019-05-20T10:10:33.078Z,13.1
2019-05-20T10:11:33.098Z,13.1
2019-05-20T10:12:44.976Z,13.1
2019-05-20T10:13:33.185Z,13.2
2019-05-20T10:14:34.323Z,13.2
2019-05-20T10:15:33.358Z,13.2
2019-05-20T10:16:33.399Z,13.2
2019-05-20T10:17:33.543Z,13.1
2019-05-20T10:18:37.647Z,13.2
2019-05-20T10:19:33.599Z,13.3
2019-05-20T10:20:33.642Z,13.2
2019-05-20T10:21:33.703Z,13.2
2019-05-20T10:22:33.766Z,13.1
2019-05-20T10:23:33.817Z,13.1
2019-05-20T10:24:33.934Z,13.2
2019-05-20T10:25:33.940Z,13.2
2019-05-20T10:26:33.961Z,13.3
2019-05-20T10:27:34.060Z,13.2
2019-05-20T10:28:34.085Z,13.2
2019-05-20T10:29:34.128Z,13.2
2019-05-20T10:30:34.187Z,13.1
2019-05-20T10:31:34.260Z,13.2
2019-05-20T10:32:34.276Z,13.1
2019-05-20T10:33:36.888Z,13.1
2019-05-20T10:34:37.225Z,13.1
2019-05-20T10:35:34.520Z,13.2
2019-05-20T10:36:34.605Z,13.1
2019-05-20T10:37:34.618Z,13.2
2019-05-20T10:38:34.708Z,13.2
2019-05-20T10:39:34.696Z,13.3
2019-05-20T10:40:34.774Z,13.3
2019-05-20T10:41:34.803Z,13.2
2019-05-20T10:42:34.935Z,13.3
2019-05-20T10:43:34.939Z,13.3
2019-05-20T10:44:35.343Z,13.2
2019-05-20T10:45:35.104Z,13.2
2019-05-20T10:46:35.103Z,13.3
2019-05-20T10:47:35.257Z,13.3
2019-05-20T10:48:35.244Z,13.4
2019-05-20T10:49:35.376Z,13.4
2019-05-20T10:50:35.390Z,13.4
2019-05-20T10:51:35.422Z,13.5
2019-05-20T10:52:35.482Z,13.5
2019-05-20T10:53:35.543Z,13.5
2019-05-20T10:54:35.599Z,13.6
2019-05-20T10:55:35.628Z,13.6
2019-05-20T10:56:35.678Z,13.6
2019-05-20T10:57:35.923Z,13.6
2019-05-20T10:58:36.068Z,13.6
2019-05-20T10:59:35.882Z,13.7
2019-05-20T11:00:36.004Z,13.7
2019-05-20T11:01:36.049Z,13.8
2019-05-20T11:02:36.090Z,13.8
2019-05-20T11:03:36.111Z,13.8
2019-05-20T11:04:36.512Z,13.8
2019-05-20T11:05:36.223Z,13.7
2019-05-20T11:06:36.254Z,13.7
2019-05-20T11:07:36.313Z,13.7
2019-05-20T11:08:36.383Z,13.7
2019-05-20T11:09:36.531Z,13.7
2019-05-20T11:10:36.458Z,13.6
2019-05-20T11:11:39.244Z,13.6
2019-05-20T11:12:36.634Z,13.5
2019-05-20T11:13:36.666Z,13.5
2019-05-20T11:14:36.698Z,13.6
2019-05-20T11:15:36.731Z,13.6
2019-05-20T11:16:36.792Z,13.6
2019-05-20T11:17:36.903Z,13.5
2019-05-20T11:18:36.903Z,13.5
2019-05-20T11:19:37.078Z,13.4
2019-05-20T11:20:37.011Z,13.4
2019-05-20T11:21:37.062Z,13.4
2019-05-20T11:22:37.163Z,13.4
2019-05-20T11:23:37.199Z,13.4
2019-05-20T11:24:37.274Z,13.4
2019-05-20T11:25:37.292Z,13.4
2019-05-20T11:26:37.396Z,13.4
2019-05-20T11:27:37.525Z,13.4
2019-05-20T11:28:37.521Z,13.4
2019-05-20T11:29:37.562Z,13.4
2019-05-20T11:30:37.636Z,13.4
2019-05-20T11:31:37.700Z,13.3
2019-05-20T11:32:37.765Z,13.4
2019-05-20T11:33:37.799Z,13.4
2019-05-20T11:34:37.968Z,13.3
2019-05-20T11:35:38.007Z,13.3
2019-05-20T11:36:37.971Z,13.3
2019-05-20T11:37:38.115Z,13.4
2019-05-20T11:38:38.138Z,13.3
2019-05-20T11:39:38.192Z,13.3
2019-05-20T11:40:38.250Z,13.3
2019-05-20T11:41:52.564Z,13.4
2019-05-20T11:42:38.415Z,13.4
2019-05-20T11:43:38.414Z,13.5
2019-05-20T11:44:38.486Z,13.5
2019-05-20T11:45:38.535Z,13.4
2019-05-20T11:46:38.601Z,13.4
2019-05-20T11:47:38.682Z,13.3
2019-05-20T11:48:38.668Z,13.3
2019-05-20T11:49:38.748Z,13.4
2019-05-20T11:50:38.795Z,13.5
2019-05-20T11:51:38.880Z,13.5
2019-05-20T11:52:38.952Z,13.4
2019-05-20T11:53:38.997Z,13.5
2019-05-20T11:54:39.064Z,13.5
2019-05-20T11:55:39.113Z,13.6
2019-05-20T11:56:39.151Z,13.6
2019-05-20T11:57:39.245Z,13.6
2019-05-20T11:58:39.304Z,13.6
2019-05-20T11:59:39.357Z,13.5
2019-05-20T12:00:39.452Z,13.5
2019-05-20T12:01:39.515Z,13.4
2019-05-20T12:02:39.586Z,13.4
2019-05-20T12:03:39.663Z,13.4
2019-05-20T12:04:39.893Z,13.4
2019-05-20T12:05:39.753Z,13.5
2019-05-20T12:06:39.803Z,13.5
2019-05-20T12:07:39.850Z,13.5
2019-05-20T12:08:39.942Z,13.4
2019-05-20T12:09:48.638Z,13.4
2019-05-20T12:10:40.042Z,13.3
2019-05-20T12:11:40.070Z,13.3
2019-05-20T12:12:40.145Z,13.3
2019-05-20T12:13:40.300Z,13.3
2019-05-20T12:14:41.062Z,13.3
2019-05-20T12:15:40.330Z,13.3
2019-05-20T12:16:40.389Z,13.3
2019-05-20T12:17:40.422Z,13.3
2019-05-20T12:18:40.517Z,13.4
2019-05-20T12:19:40.554Z,13.5
2019-05-20T12:20:40.638Z,13.4
2019-05-20T12:21:40.649Z,13.4
2019-05-20T12:22:40.658Z,13.4
2019-05-20T12:23:40.771Z,13.4
2019-05-20T12:24:41.405Z,13.5
2019-05-20T12:25:40.876Z,13.4
2019-05-20T12:26:40.949Z,13.4
2019-05-20T12:27:40.977Z,13.4
2019-05-20T12:28:41.311Z,13.4
2019-05-20T12:29:41.088Z,13.4
2019-05-20T12:30:41.163Z,13.4
2019-05-20T12:31:41.220Z,13.5
2019-05-20T12:32:41.467Z,13.5
2019-05-20T12:33:41.328Z,13.5
2019-05-20T12:34:41.730Z,13.4
2019-05-20T12:35:41.457Z,13.4
2019-05-20T12:36:41.636Z,13.4
2019-05-20T12:37:45.022Z,13.4
2019-05-20T12:38:41.661Z,13.4
2019-05-20T12:39:41.797Z,13.4
2019-05-20T12:40:41.755Z,13.3
2019-05-20T12:41:41.840Z,13.4
2019-05-20T12:42:41.869Z,13.4
2019-05-20T12:43:44.683Z,13.4
2019-05-20T12:44:41.969Z,13.5
2019-05-20T12:45:42.033Z,13.4
2019-05-20T12:46:42.094Z,13.5
2019-05-20T12:47:42.149Z,13.5
2019-05-20T12:48:42.173Z,13.5
2019-05-20T12:49:42.234Z,13.5
2019-05-20T12:50:42.265Z,13.5
2019-05-20T12:51:42.388Z,13.4
2019-05-20T12:52:42.398Z,13.3
2019-05-20T12:53:42.640Z,13.3
2019-05-20T12:54:42.636Z,13.4
2019-05-20T12:55:42.619Z,13.5
2019-05-20T12:56:42.679Z,13.6
2019-05-20T12:57:42.747Z,13.6
2019-05-20T12:58:42.824Z,13.6
2019-05-20T12:59:42.865Z,13.5
2019-05-20T13:00:42.970Z,13.6
2019-05-20T13:01:42.943Z,13.6
2019-05-20T13:02:43.016Z,13.6
2019-05-20T13:03:43.089Z,13.5
2019-05-20T13:04:43.209Z,13.5
2019-05-20T13:05:43.222Z,13.5
2019-05-20T13:06:43.319Z,13.5
2019-05-20T13:07:43.300Z,13.5
2019-05-20T13:08:43.381Z,13.6
2019-05-20T13:09:43.488Z,13.6
2019-05-20T13:10:43.464Z,13.6
2019-05-20T13:11:43.530Z,13.6
2019-05-20T13:12:43.618Z,13.6
2019-05-20T13:13:43.699Z,13.6
2019-05-20T13:14:43.769Z,13.7
2019-05-20T13:15:43.835Z,13.7
2019-05-20T13:16:43.894Z,13.7
2019-05-20T13:17:45.165Z,13.7
2019-05-20T13:18:55.231Z,13.8
2019-05-20T13:19:44.029Z,13.7
2019-05-20T13:20:44.087Z,13.6
2019-05-20T13:21:44.214Z,13.6
2019-05-20T13:22:44.191Z,13.6
2019-05-20T13:23:48.403Z,13.6